Adelaide, CA

6:15 AM PDT on September 21, 2014 (GMT -0700)
Montebello Oaks | Change Station
CLOSE
Current Station
Personal Weather Station
Location: Paso Robles, CA
Elevation: 869 ft
Nearby Weather Stations

Elev 869 ft 35.64 °N, 120.67 °W | Updated 2 minutes ago

Overcast
Overcast
59.7 °F
Feels Like 59.7 °F
N
0.0
Wind Variable Wind from NNW
Gusts 3.0 mph

Today
High -- | Low -- °F
--% Chance of Precip.
Yesterday
High -- | Low -- °F
Precip. -- in
6:50 AM 7:00 PM
Waning Crescent, 7% visible
Pressure 29.95 in
Visibility 10.0 miles
Clouds Overcast 700 ft
Dew Point 57 °F
Humidity 91%
Rainfall 0.00 in
Snow Depth 1 in , 3 in , 0 in
UV 0 out of 12
Pollen 5.80 out of 12
Air Quality Not available.
Flu Activity Not available.
METAR KPRB 211253Z AUTO 31006KT 10SM OVC007 16/13 A2997 RMK AO2 SLP142 T01610133 TSNO $

More Conditions Fewer Conditions

Pressure 29.95 in
Visibility 10.0 miles
Clouds Overcast 700 ft
Dew Point 57 °F
Humidity 91%
Rainfall 0.00 in
Snow Depth 1 in , 3 in , 0 in
UV 0 out of 12
Pollen 5.80 out of 12
Air Quality Not available.
Flu Activity Not available.
METAR KPRB 211253Z AUTO 31006KT 10SM OVC007 16/13 A2997 RMK AO2 SLP142 T01610133 TSNO $

More Conditions Fewer Conditions

10-Day Weather Forecast

Almanac

Astronomy

Sep. 21, 2014 Rise Set
Actual Time 6:50 AM PDT 7:00 PM PDT
Civil Twilight 6:24 AM PDT 7:26 PM PDT
Nautical Twilight 5:54 AM PDT 7:56 PM PDT
Astronomical Twilight 5:24 AM PDT 8:26 PM PDT
Moon 4:32 AM PDT 5:36 PM PDT
Length of Visible Light 13h 01m
Length of Day
12h 10m
Tomorrow will be 2m 14s shorter.
Waning Crescent, 7% of the Moon is Illuminated
Today
Waning Crescent
Sep 24
New
Oct 1
First Quarter
Oct 8
Full
Oct 15
Last Quarter

Today's Extremes

State Highs State Lows

Community

WunderPhotos

Upload Photos

1,755,136 photos uploaded!

Nearby

Snow Depth

Station Depth Elevation
Echo Peak 1 in 7800 ft
CSS Lab 3 in 6900 ft
Forestdale Creek 0 in 8029 ft
Heavenly Valley 0 in 8850 ft
Hagan's Meadow 0 in 8000 ft

Earthquake Activity

City Distance Mag. Time & Date
Corcoran, California 65 miles 2.9 3:59 PM PDT
2014-09-18
Minimum magnitude displayed is 2.5.

Coastal Water Temperatures

Place Temperature
No Stations Reporting

Nearby Weather Stations